sensor_id;sensor_type;location;lat;lon;timestamp;temperature;humidity
1534;DHT22;760;48.822;9.304;2023-04-03T04:04:41;4.60;99.90
1534;DHT22;760;48.822;9.304;2023-04-03T04:07:06;4.60;99.90
1534;DHT22;760;48.822;9.304;2023-04-03T04:09:32;4.60;99.90
1534;DHT22;760;48.822;9.304;2023-04-03T04:11:57;4.60;99.90
1534;DHT22;760;48.822;9.304;2023-04-03T04:14:23;4.60;99.90
1534;DHT22;760;48.822;9.304;2023-04-03T04:16:49;4.70;99.90
1534;DHT22;760;48.822;9.304;2023-04-03T04:19:14;4.60;99.90
1534;DHT22;760;48.822;9.304;2023-04-03T04:21:40;4.60;99.90
1534;DHT22;760;48.822;9.304;2023-04-03T04:24:07;4.60;99.90
1534;DHT22;760;48.822;9.304;2023-04-03T04:26:33;4.60;99.90
1534;DHT22;760;48.822;9.304;2023-04-03T04:28:58;4.60;99.90
1534;DHT22;760;48.822;9.304;2023-04-03T04:31:24;4.60;99.90
1534;DHT22;760;48.822;9.304;2023-04-03T04:33:50;4.60;99.90
1534;DHT22;760;48.822;9.304;2023-04-03T04:36:15;4.70;99.90
1534;DHT22;760;48.822;9.304;2023-04-03T04:38:41;4.60;99.90
1534;DHT22;760;48.822;9.304;2023-04-03T04:41:07;4.70;99.90
1534;DHT22;760;48.822;9.304;2023-04-03T04:43:33;4.70;99.90
1534;DHT22;760;48.822;9.304;2023-04-03T04:48:29;4.70;99.90
1534;DHT22;760;48.822;9.304;2023-04-03T04:50:55;4.70;99.90
1534;DHT22;760;48.822;9.304;2023-04-03T04:53:20;4.70;99.90
1534;DHT22;760;48.822;9.304;2023-04-03T04:55:46;4.70;99.90
1534;DHT22;760;48.822;9.304;2023-04-03T04:58:12;4.70;99.90
1534;DHT22;760;48.822;9.304;2023-04-03T05:00:37;4.70;99.90
1534;DHT22;760;48.822;9.304;2023-04-03T05:03:03;4.70;99.90
1534;DHT22;760;48.822;9.304;2023-04-03T05:05:29;4.70;99.90
1534;DHT22;760;48.822;9.304;2023-04-03T05:07:54;4.60;99.90
1534;DHT22;760;48.822;9.304;2023-04-03T05:10:20;4.60;99.90
1534;DHT22;760;48.822;9.304;2023-04-03T05:12:46;4.70;99.90
1534;DHT22;760;48.822;9.304;2023-04-03T05:15:11;4.60;99.90
1534;DHT22;760;48.822;9.304;2023-04-03T05:17:37;4.50;99.90
1534;DHT22;760;48.822;9.304;2023-04-03T05:20:03;4.50;99.90
1534;DHT22;760;48.822;9.304;2023-04-03T05:22:30;4.50;99.90
1534;DHT22;760;48.822;9.304;2023-04-03T05:24:55;4.50;99.90
1534;DHT22;760;48.822;9.304;2023-04-03T05:27:21;4.50;99.90
1534;DHT22;760;48.822;9.304;2023-04-03T05:29:49;4.50;99.90
1534;DHT22;760;48.822;9.304;2023-04-03T05:32:15;4.50;99.90
1534;DHT22;760;48.822;9.304;2023-04-03T05:34:41;4.50;99.90
1534;DHT22;760;48.822;9.304;2023-04-03T05:37:06;4.50;99.90
1534;DHT22;760;48.822;9.304;2023-04-03T05:39:32;4.40;99.90
1534;DHT22;760;48.822;9.304;2023-04-03T05:41:59;4.40;99.90
1534;DHT22;760;48.822;9.304;2023-04-03T05:44:24;4.40;99.90
1534;DHT22;760;48.822;9.304;2023-04-03T05:46:50;4.50;99.90
1534;DHT22;760;48.822;9.304;2023-04-03T05:49:16;4.50;99.90
1534;DHT22;760;48.822;9.304;2023-04-03T05:51:41;4.40;99.90
1534;DHT22;760;48.822;9.304;2023-04-03T05:54:21;4.50;99.90
1534;DHT22;760;48.822;9.304;2023-04-03T05:56:49;4.50;99.90
1534;DHT22;760;48.822;9.304;2023-04-03T05:59:16;4.50;99.90
1534;DHT22;760;48.822;9.304;2023-04-03T06:01:41;4.50;99.90
1534;DHT22;760;48.822;9.304;2023-04-03T06:04:07;4.60;99.90
1534;DHT22;760;48.822;9.304;2023-04-03T06:06:50;4.60;99.90
1534;DHT22;760;48.822;9.304;2023-04-03T06:09:19;4.70;99.90
1534;DHT22;760;48.822;9.304;2023-04-03T06:11:45;4.80;99.90
1534;DHT22;760;48.822;9.304;2023-04-03T06:14:11;4.90;99.90
1534;DHT22;760;48.822;9.304;2023-04-03T06:16:37;5.00;99.90
1534;DHT22;760;48.822;9.304;2023-04-03T06:19:03;5.00;99.90
1534;DHT22;760;48.822;9.304;2023-04-03T06:21:29;5.10;99.90
1534;DHT22;760;48.822;9.304;2023-04-03T06:23:55;5.10;99.90
1534;DHT22;760;48.822;9.304;2023-04-03T06:26:21;5.10;99.90
1534;DHT22;760;48.822;9.304;2023-04-03T06:28:47;5.10;99.90
1534;DHT22;760;48.822;9.304;2023-04-03T06:31:13;5.10;99.90
1534;DHT22;760;48.822;9.304;2023-04-03T06:33:39;5.10;99.90
1534;DHT22;760;48.822;9.304;2023-04-03T06:36:05;5.10;99.90
1534;DHT22;760;48.822;9.304;2023-04-03T06:38:32;5.10;99.90
1534;DHT22;760;48.822;9.304;2023-04-03T06:40:58;5.10;99.90
1534;DHT22;760;48.822;9.304;2023-04-03T06:43:23;5.10;99.90
1534;DHT22;760;48.822;9.304;2023-04-03T06:45:50;5.20;99.90
1534;DHT22;760;48.822;9.304;2023-04-03T06:48:15;5.20;99.90
1534;DHT22;760;48.822;9.304;2023-04-03T06:50:41;5.20;99.90
1534;DHT22;760;48.822;9.304;2023-04-03T06:53:07;5.20;99.90
1534;DHT22;760;48.822;9.304;2023-04-03T06:55:33;5.30;99.90
1534;DHT22;760;48.822;9.304;2023-04-03T06:57:59;5.30;99.90
1534;DHT22;760;48.822;9.304;2023-04-03T07:00:24;5.30;99.90
1534;DHT22;760;48.822;9.304;2023-04-03T07:02:50;5.40;99.90
1534;DHT22;760;48.822;9.304;2023-04-03T07:05:17;5.50;99.90
1534;DHT22;760;48.822;9.304;2023-04-03T07:07:42;5.60;99.90
1534;DHT22;760;48.822;9.304;2023-04-03T07:10:09;5.80;99.90
1534;DHT22;760;48.822;9.304;2023-04-03T07:12:35;5.90;99.90
1534;DHT22;760;48.822;9.304;2023-04-03T07:15:01;6.00;99.90
1534;DHT22;760;48.822;9.304;2023-04-03T07:17:27;6.10;99.90
1534;DHT22;760;48.822;9.304;2023-04-03T07:19:52;6.10;99.90
1534;DHT22;760;48.822;9.304;2023-04-03T07:22:18;6.10;99.90
1534;DHT22;760;48.822;9.304;2023-04-03T07:24:44;6.10;99.90
1534;DHT22;760;48.822;9.304;2023-04-03T07:27:09;6.10;99.90
1534;DHT22;760;48.822;9.304;2023-04-03T07:29:37;6.10;99.90
1534;DHT22;760;48.822;9.304;2023-04-03T07:32:04;6.20;99.90
1534;DHT22;760;48.822;9.304;2023-04-03T07:34:31;6.30;99.90
1534;DHT22;760;48.822;9.304;2023-04-03T07:36:58;6.30;99.90
1534;DHT22;760;48.822;9.304;2023-04-03T07:39:24;6.30;99.90
1534;DHT22;760;48.822;9.304;2023-04-03T07:41:50;6.20;99.70
1534;DHT22;760;48.822;9.304;2023-04-03T07:44:15;6.30;99.90
1534;DHT22;760;48.822;9.304;2023-04-03T07:46:41;6.40;99.90
1534;DHT22;760;48.822;9.304;2023-04-03T07:49:07;6.60;99.90
1534;DHT22;760;48.822;9.304;2023-04-03T07:51:33;6.70;99.70
1534;DHT22;760;48.822;9.304;2023-04-03T07:53:59;6.70;99.50
1534;DHT22;760;48.822;9.304;2023-04-03T07:56:24;6.80;99.20
1534;DHT22;760;48.822;9.304;2023-04-03T07:58:50;6.90;99.50
1534;DHT22;760;48.822;9.304;2023-04-03T08:01:16;7.00;99.70
1534;DHT22;760;48.822;9.304;2023-04-03T08:03:42;7.10;99.90
1534;DHT22;760;48.822;9.304;2023-04-03T08:06:08;7.20;99.60
1534;DHT22;760;48.822;9.304;2023-04-03T08:08:34;7.10;99.70
1534;DHT22;760;48.822;9.304;2023-04-03T08:11:01;7.20;99.90
1534;DHT22;760;48.822;9.304;2023-04-03T08:13:28;7.30;99.50
1534;DHT22;760;48.822;9.304;2023-04-03T08:15:55;7.30;99.80
1534;DHT22;760;48.822;9.304;2023-04-03T08:18:23;7.50;99.40
1534;DHT22;760;48.822;9.304;2023-04-03T08:20:50;7.70;99.10
1534;DHT22;760;48.822;9.304;2023-04-03T08:23:17;7.80;98.60
1534;DHT22;760;48.822;9.304;2023-04-03T08:25:43;7.90;98.40
1534;DHT22;760;48.822;9.304;2023-04-03T08:28:10;8.00;98.50
1534;DHT22;760;48.822;9.304;2023-04-03T08:30:39;8.30;97.90
1534;DHT22;760;48.822;9.304;2023-04-03T08:33:05;8.30;97.50
1534;DHT22;760;48.822;9.304;2023-04-03T08:35:31;8.30;97.60
1534;DHT22;760;48.822;9.304;2023-04-03T08:37:57;8.30;97.30
1534;DHT22;760;48.822;9.304;2023-04-03T08:40:23;8.20;97.10
1534;DHT22;760;48.822;9.304;2023-04-03T08:45:50;7.70;97.50
1534;DHT22;760;48.822;9.304;2023-04-03T08:48:26;7.50;98.00
1534;DHT22;760;48.822;9.304;2023-04-03T08:50:56;7.70;98.10
1534;DHT22;760;48.822;9.304;2023-04-03T08:53:26;7.80;97.90
1534;DHT22;760;48.822;9.304;2023-04-03T08:55:55;7.90;97.60
1534;DHT22;760;48.822;9.304;2023-04-03T08:58:26;7.90;97.00
1534;DHT22;760;48.822;9.304;2023-04-03T09:03:25;8.30;96.40
1534;DHT22;760;48.822;9.304;2023-04-03T09:08:40;8.40;95.30
1534;DHT22;760;48.822;9.304;2023-04-03T09:21:45;7.90;96.20
1534;DHT22;760;48.822;9.304;2023-04-03T09:24:14;7.90;96.10
1534;DHT22;760;48.822;9.304;2023-04-03T09:26:45;7.80;96.00
1534;DHT22;760;48.822;9.304;2023-04-03T09:29:23;7.70;96.00
1534;DHT22;760;48.822;9.304;2023-04-03T09:31:52;7.60;96.30
1534;DHT22;760;48.822;9.304;2023-04-03T09:34:24;7.50;96.30
1534;DHT22;760;48.822;9.304;2023-04-03T09:36:56;7.50;96.40
1534;DHT22;760;48.822;9.304;2023-04-03T09:39:27;7.50;96.70
1534;DHT22;760;48.822;9.304;2023-04-03T09:44:36;7.50;96.40
1534;DHT22;760;48.822;9.304;2023-04-03T09:47:28;7.50;96.50
1534;DHT22;760;48.822;9.304;2023-04-03T09:52:39;7.40;96.30
1534;DHT22;760;48.822;9.304;2023-04-03T09:55:15;7.40;96.10
1534;DHT22;760;48.822;9.304;2023-04-03T09:57:41;7.50;96.20
1534;DHT22;760;48.822;9.304;2023-04-03T10:00:21;7.60;96.20
1534;DHT22;760;48.822;9.304;2023-04-03T10:02:50;7.70;96.70
1534;DHT22;760;48.822;9.304;2023-04-03T10:10:48;7.70;96.50
1534;DHT22;760;48.822;9.304;2023-04-03T10:13:29;7.70;96.50
1534;DHT22;760;48.822;9.304;2023-04-03T10:16:08;7.60;96.50
1534;DHT22;760;48.822;9.304;2023-04-03T10:21:23;7.40;96.50
1534;DHT22;760;48.822;9.304;2023-04-03T10:24:25;7.40;96.20
1534;DHT22;760;48.822;9.304;2023-04-03T10:27:07;7.30;96.40
1534;DHT22;760;48.822;9.304;2023-04-03T10:33:05;7.30;96.70
1534;DHT22;760;48.822;9.304;2023-04-03T10:35:50;7.30;97.00
1534;DHT22;760;48.822;9.304;2023-04-03T10:38:47;7.40;95.90
1534;DHT22;760;48.822;9.304;2023-04-03T10:41:21;7.30;95.90
1534;DHT22;760;48.822;9.304;2023-04-03T10:47:06;7.30;95.90
1534;DHT22;760;48.822;9.304;2023-04-03T10:55:34;7.40;94.70
1534;DHT22;760;48.822;9.304;2023-04-03T10:58:03;7.50;94.60
1534;DHT22;760;48.822;9.304;2023-04-03T11:00:36;7.60;93.80
1534;DHT22;760;48.822;9.304;2023-04-03T11:03:09;7.60;92.80
1534;DHT22;760;48.822;9.304;2023-04-03T11:05:45;7.50;92.30
1534;DHT22;760;48.822;9.304;2023-04-03T11:10:50;7.50;90.30
1534;DHT22;760;48.822;9.304;2023-04-03T11:13:34;7.50;89.40
1534;DHT22;760;48.822;9.304;2023-04-03T11:16:02;7.60;90.00
1534;DHT22;760;48.822;9.304;2023-04-03T11:18:37;7.60;92.70
1534;DHT22;760;48.822;9.304;2023-04-03T11:21:19;7.70;93.60
1534;DHT22;760;48.822;9.304;2023-04-03T11:23:47;7.80;93.80
1534;DHT22;760;48.822;9.304;2023-04-03T11:26:21;7.80;93.50
1534;DHT22;760;48.822;9.304;2023-04-03T11:28:59;7.80;93.20
1534;DHT22;760;48.822;9.304;2023-04-03T11:34:39;7.80;93.80
1534;DHT22;760;48.822;9.304;2023-04-03T11:37:34;7.90;94.30
1534;DHT22;760;48.822;9.304;2023-04-03T11:40:31;8.00;93.80
1534;DHT22;760;48.822;9.304;2023-04-03T11:43:23;8.00;93.20
1534;DHT22;760;48.822;9.304;2023-04-03T11:45:57;8.10;93.20
1534;DHT22;760;48.822;9.304;2023-04-03T11:50:54;8.30;92.90
1534;DHT22;760;48.822;9.304;2023-04-03T11:53:32;8.20;93.10
1534;DHT22;760;48.822;9.304;2023-04-03T11:56:00;8.10;93.30
1534;DHT22;760;48.822;9.304;2023-04-03T11:58:33;7.90;93.20
1534;DHT22;760;48.822;9.304;2023-04-03T12:01:08;7.90;93.20
1534;DHT22;760;48.822;9.304;2023-04-03T12:03:58;7.90;93.40
1534;DHT22;760;48.822;9.304;2023-04-03T12:08:58;8.20;92.10
1534;DHT22;760;48.822;9.304;2023-04-03T12:11:31;8.30;91.50
1534;DHT22;760;48.822;9.304;2023-04-03T12:16:30;8.30;91.10
1534;DHT22;760;48.822;9.304;2023-04-03T12:19:02;8.30;91.30
1534;DHT22;760;48.822;9.304;2023-04-03T12:40:44;8.10;91.20
1534;DHT22;760;48.822;9.304;2023-04-03T12:48:28;8.10;91.20
1534;DHT22;760;48.822;9.304;2023-04-03T12:50:55;8.10;91.00
1534;DHT22;760;48.822;9.304;2023-04-03T12:53:25;8.20;90.90
1534;DHT22;760;48.822;9.304;2023-04-03T12:56:18;8.20;90.40
1534;DHT22;760;48.822;9.304;2023-04-03T12:58:43;8.20;90.20
1534;DHT22;760;48.822;9.304;2023-04-03T13:01:12;8.30;89.60
1534;DHT22;760;48.822;9.304;2023-04-03T13:03:41;8.30;88.90
1534;DHT22;760;48.822;9.304;2023-04-03T13:06:17;8.30;88.10
1534;DHT22;760;48.822;9.304;2023-04-03T13:08:58;8.30;88.80
1534;DHT22;760;48.822;9.304;2023-04-03T13:11:28;8.20;90.00
1534;DHT22;760;48.822;9.304;2023-04-03T13:14:05;8.00;90.30
1534;DHT22;760;48.822;9.304;2023-04-03T13:16:32;8.00;89.80
1534;DHT22;760;48.822;9.304;2023-04-03T13:18:58;8.00;89.50
1534;DHT22;760;48.822;9.304;2023-04-03T13:21:30;8.00;90.00
1534;DHT22;760;48.822;9.304;2023-04-03T13:23:58;8.10;89.50
1534;DHT22;760;48.822;9.304;2023-04-03T13:26:28;8.20;89.70
1534;DHT22;760;48.822;9.304;2023-04-03T13:28:57;8.30;87.40
1534;DHT22;760;48.822;9.304;2023-04-03T13:31:30;8.40;88.30
1534;DHT22;760;48.822;9.304;2023-04-03T13:34:16;8.60;88.50
1534;DHT22;760;48.822;9.304;2023-04-03T13:36:57;8.70;87.60
1534;DHT22;760;48.822;9.304;2023-04-03T13:39:30;8.70;87.10
1534;DHT22;760;48.822;9.304;2023-04-03T13:42:01;8.70;86.90
1534;DHT22;760;48.822;9.304;2023-04-03T13:44:36;8.70;87.40
1534;DHT22;760;48.822;9.304;2023-04-03T13:49:42;8.70;86.50
1534;DHT22;760;48.822;9.304;2023-04-03T13:54:46;8.50;87.70
1534;DHT22;760;48.822;9.304;2023-04-03T13:57:14;8.40;86.90
1534;DHT22;760;48.822;9.304;2023-04-03T13:59:41;8.40;87.80
1534;DHT22;760;48.822;9.304;2023-04-03T14:07:02;8.50;86.80
1534;DHT22;760;48.822;9.304;2023-04-03T14:09:29;8.60;85.80
1534;DHT22;760;48.822;9.304;2023-04-03T14:12:08;8.50;85.50
1534;DHT22;760;48.822;9.304;2023-04-03T14:14:36;8.50;85.80
1534;DHT22;760;48.822;9.304;2023-04-03T14:17:15;8.50;86.90
1534;DHT22;760;48.822;9.304;2023-04-03T14:19:41;8.50;85.60
1534;DHT22;760;48.822;9.304;2023-04-03T14:22:24;8.60;85.10
1534;DHT22;760;48.822;9.304;2023-04-03T14:24:51;8.60;82.90
1534;DHT22;760;48.822;9.304;2023-04-03T14:27:30;8.70;83.00
1534;DHT22;760;48.822;9.304;2023-04-03T14:29:58;8.70;84.60
1534;DHT22;760;48.822;9.304;2023-04-03T14:32:26;8.70;84.80
1534;DHT22;760;48.822;9.304;2023-04-03T14:34:51;8.60;84.30
1534;DHT22;760;48.822;9.304;2023-04-03T14:37:21;8.50;85.30
1534;DHT22;760;48.822;9.304;2023-04-03T14:39:48;8.50;85.20
1534;DHT22;760;48.822;9.304;2023-04-03T14:42:18;8.50;85.30
1534;DHT22;760;48.822;9.304;2023-04-03T14:44:44;8.60;84.70
1534;DHT22;760;48.822;9.304;2023-04-03T14:47:16;8.70;84.60
1534;DHT22;760;48.822;9.304;2023-04-03T14:49:43;8.70;84.70
1534;DHT22;760;48.822;9.304;2023-04-03T14:52:38;8.70;83.60
1534;DHT22;760;48.822;9.304;2023-04-03T14:55:05;8.60;82.00
1534;DHT22;760;48.822;9.304;2023-04-03T14:57:31;8.40;83.00
1534;DHT22;760;48.822;9.304;2023-04-03T14:59:57;8.40;83.60
1534;DHT22;760;48.822;9.304;2023-04-03T15:04:53;8.60;82.90
1534;DHT22;760;48.822;9.304;2023-04-03T15:07:18;8.60;81.30
1534;DHT22;760;48.822;9.304;2023-04-03T15:09:44;8.60;80.40
1534;DHT22;760;48.822;9.304;2023-04-03T15:12:10;8.60;79.70
1534;DHT22;760;48.822;9.304;2023-04-03T15:14:36;8.40;80.10
1534;DHT22;760;48.822;9.304;2023-04-03T15:17:02;8.30;79.60
1534;DHT22;760;48.822;9.304;2023-04-03T15:19:29;8.10;80.60
1534;DHT22;760;48.822;9.304;2023-04-03T15:21:55;8.10;80.40
1534;DHT22;760;48.822;9.304;2023-04-03T15:24:20;8.00;81.20
1534;DHT22;760;48.822;9.304;2023-04-03T15:26:46;8.00;82.10
1534;DHT22;760;48.822;9.304;2023-04-03T15:29:12;7.90;81.80
1534;DHT22;760;48.822;9.304;2023-04-03T15:31:37;7.90;82.20
1534;DHT22;760;48.822;9.304;2023-04-03T15:34:03;7.90;82.00
1534;DHT22;760;48.822;9.304;2023-04-03T15:36:28;7.90;82.00
1534;DHT22;760;48.822;9.304;2023-04-03T15:38:54;7.90;82.20
1534;DHT22;760;48.822;9.304;2023-04-03T15:41:20;7.90;82.10
1534;DHT22;760;48.822;9.304;2023-04-03T15:43:46;8.00;81.90
1534;DHT22;760;48.822;9.304;2023-04-03T15:46:12;8.00;81.20
1534;DHT22;760;48.822;9.304;2023-04-03T15:48:38;8.10;80.90
1534;DHT22;760;48.822;9.304;2023-04-03T15:51:05;8.20;80.90
1534;DHT22;760;48.822;9.304;2023-04-03T15:53:31;8.30;81.40
1534;DHT22;760;48.822;9.304;2023-04-03T15:55:57;8.40;79.30
1534;DHT22;760;48.822;9.304;2023-04-03T15:58:22;8.40;78.00
1534;DHT22;760;48.822;9.304;2023-04-03T16:00:48;8.30;77.20
1534;DHT22;760;48.822;9.304;2023-04-03T16:03:18;8.20;77.90
1534;DHT22;760;48.822;9.304;2023-04-03T16:05:44;8.10;77.90
1534;DHT22;760;48.822;9.304;2023-04-03T16:08:10;8.00;78.90
1534;DHT22;760;48.822;9.304;2023-04-03T16:10:38;7.80;79.50
1534;DHT22;760;48.822;9.304;2023-04-03T16:13:04;7.90;80.40
1534;DHT22;760;48.822;9.304;2023-04-03T16:15:30;8.00;79.10
1534;DHT22;760;48.822;9.304;2023-04-03T16:17:58;8.00;79.30
1534;DHT22;760;48.822;9.304;2023-04-03T16:20:25;8.10;79.40
1534;DHT22;760;48.822;9.304;2023-04-03T16:22:51;8.20;79.50
1534;DHT22;760;48.822;9.304;2023-04-03T16:25:17;8.20;80.00
1534;DHT22;760;48.822;9.304;2023-04-03T16:27:43;8.10;79.50
1534;DHT22;760;48.822;9.304;2023-04-03T16:30:09;8.10;79.00
1534;DHT22;760;48.822;9.304;2023-04-03T16:32:36;8.00;78.90
1534;DHT22;760;48.822;9.304;2023-04-03T16:35:02;7.90;79.50
1534;DHT22;760;48.822;9.304;2023-04-03T16:37:28;7.80;79.30
1534;DHT22;760;48.822;9.304;2023-04-03T16:39:53;7.70;79.20
1534;DHT22;760;48.822;9.304;2023-04-03T16:42:19;7.60;79.80
1534;DHT22;760;48.822;9.304;2023-04-03T16:44:44;7.60;80.10
1534;DHT22;760;48.822;9.304;2023-04-03T16:47:10;7.60;80.60
1534;DHT22;760;48.822;9.304;2023-04-03T16:49:38;7.60;81.90
1534;DHT22;760;48.822;9.304;2023-04-03T16:52:04;7.60;82.00
1534;DHT22;760;48.822;9.304;2023-04-03T16:54:31;7.70;82.40
1534;DHT22;760;48.822;9.304;2023-04-03T16:56:57;7.70;81.40
1534;DHT22;760;48.822;9.304;2023-04-03T16:59:23;7.70;81.50
1534;DHT22;760;48.822;9.304;2023-04-03T17:01:49;7.70;80.40
1534;DHT22;760;48.822;9.304;2023-04-03T17:04:15;7.60;80.40
1534;DHT22;760;48.822;9.304;2023-04-03T17:06:40;7.50;80.80
1534;DHT22;760;48.822;9.304;2023-04-03T17:09:07;7.40;80.90
1534;DHT22;760;48.822;9.304;2023-04-03T17:11:38;7.30;81.00
1534;DHT22;760;48.822;9.304;2023-04-03T17:14:06;7.30;81.80
1534;DHT22;760;48.822;9.304;2023-04-03T17:16:34;7.20;82.10
1534;DHT22;760;48.822;9.304;2023-04-03T17:19:00;7.10;82.80
1534;DHT22;760;48.822;9.304;2023-04-03T17:21:27;7.10;83.30
1534;DHT22;760;48.822;9.304;2023-04-03T17:23:56;7.00;83.10
1534;DHT22;760;48.822;9.304;2023-04-03T17:26:23;7.00;82.90
1534;DHT22;760;48.822;9.304;2023-04-03T17:28:49;7.00;83.20
1534;DHT22;760;48.822;9.304;2023-04-03T17:31:15;7.00;82.70
1534;DHT22;760;48.822;9.304;2023-04-03T17:33:40;7.00;82.00
1534;DHT22;760;48.822;9.304;2023-04-03T17:36:06;7.00;82.50
1534;DHT22;760;48.822;9.304;2023-04-03T17:38:32;6.90;82.90
1534;DHT22;760;48.822;9.304;2023-04-03T17:41:00;6.90;83.70
1534;DHT22;760;48.822;9.304;2023-04-03T17:43:27;6.90;84.00
1534;DHT22;760;48.822;9.304;2023-04-03T17:45:52;6.80;85.20
1534;DHT22;760;48.822;9.304;2023-04-03T17:48:18;6.80;84.80
1534;DHT22;760;48.822;9.304;2023-04-03T17:50:44;6.80;85.40
1534;DHT22;760;48.822;9.304;2023-04-03T17:53:10;6.80;86.10
1534;DHT22;760;48.822;9.304;2023-04-03T17:55:37;6.80;86.20
1534;DHT22;760;48.822;9.304;2023-04-03T17:58:03;6.70;85.40
1534;DHT22;760;48.822;9.304;2023-04-03T18:00:28;6.70;85.30
1534;DHT22;760;48.822;9.304;2023-04-03T18:02:54;6.70;84.40
1534;DHT22;760;48.822;9.304;2023-04-03T18:05:20;6.70;84.20
1534;DHT22;760;48.822;9.304;2023-04-03T18:07:46;6.70;83.90
1534;DHT22;760;48.822;9.304;2023-04-03T18:10:12;6.60;83.80
1534;DHT22;760;48.822;9.304;2023-04-03T18:12:39;6.60;84.50
1534;DHT22;760;48.822;9.304;2023-04-03T18:15:06;6.60;85.40
1534;DHT22;760;48.822;9.304;2023-04-03T18:17:32;6.50;85.80
1534;DHT22;760;48.822;9.304;2023-04-03T18:19:58;6.50;85.90
1534;DHT22;760;48.822;9.304;2023-04-03T18:22:24;6.40;86.00
1534;DHT22;760;48.822;9.304;2023-04-03T18:24:51;6.30;85.90
1534;DHT22;760;48.822;9.304;2023-04-03T18:27:20;6.30;86.60
1534;DHT22;760;48.822;9.304;2023-04-03T18:29:53;6.20;87.80
1534;DHT22;760;48.822;9.304;2023-04-03T18:32:20;6.10;87.40
1534;DHT22;760;48.822;9.304;2023-04-03T18:34:46;6.00;88.50
1534;DHT22;760;48.822;9.304;2023-04-03T18:37:12;5.90;88.50
1534;DHT22;760;48.822;9.304;2023-04-03T18:39:39;5.90;88.80
1534;DHT22;760;48.822;9.304;2023-04-03T18:42:12;5.80;88.90
1534;DHT22;760;48.822;9.304;2023-04-03T18:44:38;5.80;89.50
1534;DHT22;760;48.822;9.304;2023-04-03T18:47:06;5.70;89.70
1534;DHT22;760;48.822;9.304;2023-04-03T18:49:33;5.70;90.00
1534;DHT22;760;48.822;9.304;2023-04-03T18:52:00;5.60;90.00
1534;DHT22;760;48.822;9.304;2023-04-03T18:54:26;5.60;90.20
1534;DHT22;760;48.822;9.304;2023-04-03T18:56:52;5.60;90.30
1534;DHT22;760;48.822;9.304;2023-04-03T18:59:17;5.60;90.50
1534;DHT22;760;48.822;9.304;2023-04-03T19:01:44;5.50;90.40
1534;DHT22;760;48.822;9.304;2023-04-03T19:04:10;5.50;90.30
1534;DHT22;760;48.822;9.304;2023-04-03T19:06:36;5.60;90.20
1534;DHT22;760;48.822;9.304;2023-04-03T19:09:04;5.60;90.30
1534;DHT22;760;48.822;9.304;2023-04-03T19:11:31;5.50;90.50
1534;DHT22;760;48.822;9.304;2023-04-03T19:13:57;5.50;90.50
1534;DHT22;760;48.822;9.304;2023-04-03T19:16:23;5.50;90.50
1534;DHT22;760;48.822;9.304;2023-04-03T19:18:49;5.50;90.60
1534;DHT22;760;48.822;9.304;2023-04-03T19:21:14;5.50;90.60
1534;DHT22;760;48.822;9.304;2023-04-03T19:23:40;5.40;90.40
1534;DHT22;760;48.822;9.304;2023-04-03T19:26:10;5.50;90.40
1534;DHT22;760;48.822;9.304;2023-04-03T19:28:37;5.40;90.30
1534;DHT22;760;48.822;9.304;2023-04-03T19:31:13;5.50;90.10
1534;DHT22;760;48.822;9.304;2023-04-03T19:33:39;5.40;88.90
1534;DHT22;760;48.822;9.304;2023-04-03T19:36:09;5.40;88.60
1534;DHT22;760;48.822;9.304;2023-04-03T19:38:36;5.50;88.30
1534;DHT22;760;48.822;9.304;2023-04-03T19:41:11;5.50;87.80
1534;DHT22;760;48.822;9.304;2023-04-03T19:43:37;5.40;87.50
1534;DHT22;760;48.822;9.304;2023-04-03T19:46:04;5.40;88.40
1534;DHT22;760;48.822;9.304;2023-04-03T19:48:30;5.40;87.50
1534;DHT22;760;48.822;9.304;2023-04-03T19:50:56;5.30;87.40
1534;DHT22;760;48.822;9.304;2023-04-03T19:53:22;5.30;87.80
1534;DHT22;760;48.822;9.304;2023-04-03T19:55:54;5.30;87.70
1534;DHT22;760;48.822;9.304;2023-04-03T19:58:21;5.20;87.50
1534;DHT22;760;48.822;9.304;2023-04-03T20:00:47;5.10;87.60
1534;DHT22;760;48.822;9.304;2023-04-03T20:03:13;5.10;87.80
1534;DHT22;760;48.822;9.304;2023-04-03T20:05:39;5.00;88.00
1534;DHT22;760;48.822;9.304;2023-04-03T20:08:05;4.90;87.80
1534;DHT22;760;48.822;9.304;2023-04-03T20:10:30;4.90;88.10
1534;DHT22;760;48.822;9.304;2023-04-03T20:12:56;4.80;88.60
1534;DHT22;760;48.822;9.304;2023-04-03T20:15:22;4.80;88.70
1534;DHT22;760;48.822;9.304;2023-04-03T20:17:47;4.70;88.70
1534;DHT22;760;48.822;9.304;2023-04-03T20:20:14;4.70;88.90
1534;DHT22;760;48.822;9.304;2023-04-03T20:22:40;4.60;89.00
1534;DHT22;760;48.822;9.304;2023-04-03T20:25:10;4.50;89.10
1534;DHT22;760;48.822;9.304;2023-04-03T20:27:37;4.50;89.20
1534;DHT22;760;48.822;9.304;2023-04-03T20:30:05;4.40;89.30
1534;DHT22;760;48.822;9.304;2023-04-03T20:32:33;4.40;89.50
1534;DHT22;760;48.822;9.304;2023-04-03T20:34:59;4.40;89.90
1534;DHT22;760;48.822;9.304;2023-04-03T20:37:24;4.30;90.00
1534;DHT22;760;48.822;9.304;2023-04-03T20:39:50;4.30;90.20
1534;DHT22;760;48.822;9.304;2023-04-03T20:42:16;4.20;90.20
1534;DHT22;760;48.822;9.304;2023-04-03T20:44:41;4.20;90.10
1534;DHT22;760;48.822;9.304;2023-04-03T20:47:11;4.10;90.20
1534;DHT22;760;48.822;9.304;2023-04-03T20:49:37;4.10;90.20
1534;DHT22;760;48.822;9.304;2023-04-03T20:52:03;4.10;90.30
1534;DHT22;760;48.822;9.304;2023-04-03T20:54:29;4.10;90.40
1534;DHT22;760;48.822;9.304;2023-04-03T20:56:55;4.00;90.40
1534;DHT22;760;48.822;9.304;2023-04-03T20:59:21;4.00;90.30
1534;DHT22;760;48.822;9.304;2023-04-03T21:01:47;4.00;90.40
1534;DHT22;760;48.822;9.304;2023-04-03T21:04:27;3.90;90.40
1534;DHT22;760;48.822;9.304;2023-04-03T21:21:28;3.70;90.70
1534;DHT22;760;48.822;9.304;2023-04-03T21:23:54;3.70;90.80
1534;DHT22;760;48.822;9.304;2023-04-03T21:26:20;3.60;90.70
1534;DHT22;760;48.822;9.304;2023-04-03T21:28:49;3.60;90.80
1534;DHT22;760;48.822;9.304;2023-04-03T21:31:14;3.50;90.90
1534;DHT22;760;48.822;9.304;2023-04-03T21:33:40;3.50;91.10
1534;DHT22;760;48.822;9.304;2023-04-03T21:36:08;3.40;91.40
1534;DHT22;760;48.822;9.304;2023-04-03T21:38:33;3.40;91.20
1534;DHT22;760;48.822;9.304;2023-04-03T21:41:00;3.30;91.20
1534;DHT22;760;48.822;9.304;2023-04-03T21:43:26;3.30;91.40
1534;DHT22;760;48.822;9.304;2023-04-03T21:45:56;3.30;91.50
1534;DHT22;760;48.822;9.304;2023-04-03T21:48:23;3.20;91.70
1534;DHT22;760;48.822;9.304;2023-04-03T21:50:51;3.20;91.60
1534;DHT22;760;48.822;9.304;2023-04-03T21:53:21;3.10;91.70
1534;DHT22;760;48.822;9.304;2023-04-03T21:55:53;3.10;91.80
1534;DHT22;760;48.822;9.304;2023-04-03T21:58:19;3.00;91.90
